sensor_id;sensor_type;location;lat;lon;timestamp;pressure;altitude;pressure_sealevel;temperature
28305;BMP280;15569;42.652;23.040;2023-07-09T00:00:48;93489.41;;;21.27
28305;BMP280;15569;42.652;23.040;2023-07-09T00:03:14;93490.84;;;21.30
28305;BMP280;15569;42.652;23.040;2023-07-09T00:05:40;93488.75;;;21.29
28305;BMP280;15569;42.652;23.040;2023-07-09T00:16:37;93490.69;;;21.20
28305;BMP280;15569;42.652;23.040;2023-07-09T00:19:05;93483.63;;;21.11
28305;BMP280;15569;42.652;23.040;2023-07-09T00:21:30;93477.28;;;21.03
28305;BMP280;15569;42.652;23.040;2023-07-09T00:24:00;93480.78;;;21.05
28305;BMP280;15569;42.652;23.040;2023-07-09T00:26:30;93476.72;;;21.10
28305;BMP280;15569;42.652;23.040;2023-07-09T00:28:57;93475.97;;;21.06
28305;BMP280;15569;42.652;23.040;2023-07-09T00:31:23;93478.06;;;21.09
28305;BMP280;15569;42.652;23.040;2023-07-09T00:33:48;93481.50;;;21.06
28305;BMP280;15569;42.652;23.040;2023-07-09T00:36:20;93480.84;;;21.09
28305;BMP280;15569;42.652;23.040;2023-07-09T00:38:49;93484.88;;;21.02
28305;BMP280;15569;42.652;23.040;2023-07-09T00:41:18;93482.03;;;20.98
28305;BMP280;15569;42.652;23.040;2023-07-09T00:43:46;93481.28;;;20.94
28305;BMP280;15569;42.652;23.040;2023-07-09T00:48:37;93471.59;;;20.95
28305;BMP280;15569;42.652;23.040;2023-07-09T00:51:13;93468.19;;;20.94
28305;BMP280;15569;42.652;23.040;2023-07-09T00:53:41;93464.06;;;20.97
28305;BMP280;15569;42.652;23.040;2023-07-09T00:56:15;93471.59;;;20.93
28305;BMP280;15569;42.652;23.040;2023-07-09T00:58:43;93473.69;;;20.94
28305;BMP280;15569;42.652;23.040;2023-07-09T01:01:14;93458.47;;;20.95
28305;BMP280;15569;42.652;23.040;2023-07-09T01:03:49;93463.88;;;20.85
28305;BMP280;15569;42.652;23.040;2023-07-09T01:06:23;93459.09;;;20.90
28305;BMP280;15569;42.652;23.040;2023-07-09T01:08:49;93461.88;;;20.92
28305;BMP280;15569;42.652;23.040;2023-07-09T01:11:20;93448.00;;;20.88
28305;BMP280;15569;42.652;23.040;2023-07-09T01:13:56;93443.06;;;20.82
28305;BMP280;15569;42.652;23.040;2023-07-09T01:16:27;93451.44;;;20.86
28305;BMP280;15569;42.652;23.040;2023-07-09T01:18:54;93461.81;;;20.88
28305;BMP280;15569;42.652;23.040;2023-07-09T01:21:20;93460.41;;;20.87
28305;BMP280;15569;42.652;23.040;2023-07-09T01:23:47;93449.06;;;20.69
28305;BMP280;15569;42.652;23.040;2023-07-09T01:26:16;93431.81;;;20.70
28305;BMP280;15569;42.652;23.040;2023-07-09T01:28:41;93444.25;;;20.71
28305;BMP280;15569;42.652;23.040;2023-07-09T01:31:09;93453.25;;;20.72
28305;BMP280;15569;42.652;23.040;2023-07-09T01:33:35;93445.66;;;20.72
28305;BMP280;15569;42.652;23.040;2023-07-09T01:36:00;93442.78;;;20.66
28305;BMP280;15569;42.652;23.040;2023-07-09T01:38:27;93446.22;;;20.65
28305;BMP280;15569;42.652;23.040;2023-07-09T01:40:58;93451.75;;;20.65
28305;BMP280;15569;42.652;23.040;2023-07-09T01:43:25;93451.72;;;20.63
28305;BMP280;15569;42.652;23.040;2023-07-09T01:45:51;93454.47;;;20.63
28305;BMP280;15569;42.652;23.040;2023-07-09T01:48:19;93455.94;;;20.66
28305;BMP280;15569;42.652;23.040;2023-07-09T01:50:46;93451.06;;;20.64
28305;BMP280;15569;42.652;23.040;2023-07-09T01:53:15;93455.19;;;20.63
28305;BMP280;15569;42.652;23.040;2023-07-09T01:55:42;93452.50;;;20.67
28305;BMP280;15569;42.652;23.040;2023-07-09T01:58:07;93447.59;;;20.62
28305;BMP280;15569;42.652;23.040;2023-07-09T02:00:33;93449.63;;;20.61
28305;BMP280;15569;42.652;23.040;2023-07-09T02:03:03;93455.19;;;20.63
28305;BMP280;15569;42.652;23.040;2023-07-09T02:05:31;93455.19;;;20.63
28305;BMP280;15569;42.652;23.040;2023-07-09T02:07:57;93457.91;;;20.61
28305;BMP280;15569;42.652;23.040;2023-07-09T02:10:22;93450.22;;;20.56
28305;BMP280;15569;42.652;23.040;2023-07-09T02:12:48;93459.91;;;20.57
28305;BMP280;15569;42.652;23.040;2023-07-09T02:15:14;93463.38;;;20.57
28305;BMP280;15569;42.652;23.040;2023-07-09T02:20:25;93454.34;;;20.55
28305;BMP280;15569;42.652;23.040;2023-07-09T02:22:51;93455.03;;;20.55
28305;BMP280;15569;42.652;23.040;2023-07-09T02:25:16;93454.94;;;20.49
28305;BMP280;15569;42.652;23.040;2023-07-09T02:27:42;93462.53;;;20.49
28305;BMP280;15569;42.652;23.040;2023-07-09T02:30:08;93463.16;;;20.47
28305;BMP280;15569;42.652;23.040;2023-07-09T02:32:33;93474.19;;;20.45
28305;BMP280;15569;42.652;23.040;2023-07-09T02:34:59;93461.72;;;20.44
28305;BMP280;15569;42.652;23.040;2023-07-09T02:37:25;93473.50;;;20.45
28305;BMP280;15569;42.652;23.040;2023-07-09T02:39:51;93475.50;;;20.42
28305;BMP280;15569;42.652;23.040;2023-07-09T02:42:19;93469.97;;;20.40
28305;BMP280;15569;42.652;23.040;2023-07-09T02:44:45;93475.97;;;20.30
28305;BMP280;15569;42.652;23.040;2023-07-09T02:47:11;93476.75;;;20.35
28305;BMP280;15569;42.652;23.040;2023-07-09T02:49:37;93478.06;;;20.32
28305;BMP280;15569;42.652;23.040;2023-07-09T02:52:03;93473.25;;;20.32
28305;BMP280;15569;42.652;23.040;2023-07-09T02:54:28;93474.56;;;20.29
28305;BMP280;15569;42.652;23.040;2023-07-09T02:56:54;93483.59;;;20.32
28305;BMP280;15569;42.652;23.040;2023-07-09T02:59:19;93480.78;;;20.30
28305;BMP280;15569;42.652;23.040;2023-07-09T03:01:45;93490.50;;;20.33
28305;BMP280;15569;42.652;23.040;2023-07-09T03:04:13;93498.09;;;20.32
28305;BMP280;15569;42.652;23.040;2023-07-09T03:06:38;93493.19;;;20.29
28305;BMP280;15569;42.652;23.040;2023-07-09T03:09:04;93491.88;;;20.32
28305;BMP280;15569;42.652;23.040;2023-07-09T03:11:31;93492.63;;;20.34
28305;BMP280;15569;42.652;23.040;2023-07-09T03:13:58;93493.97;;;20.33
28305;BMP280;15569;42.652;23.040;2023-07-09T03:16:26;93496.03;;;20.33
28305;BMP280;15569;42.652;23.040;2023-07-09T03:18:52;93507.16;;;20.37
28305;BMP280;15569;42.652;23.040;2023-07-09T03:21:18;93505.06;;;20.35
28305;BMP280;15569;42.652;23.040;2023-07-09T03:23:44;93507.16;;;20.37
28305;BMP280;15569;42.652;23.040;2023-07-09T03:26:10;93510.63;;;20.37
28305;BMP280;15569;42.652;23.040;2023-07-09T03:28:35;93497.50;;;20.36
28305;BMP280;15569;42.652;23.040;2023-07-09T03:31:00;93491.81;;;20.28
28305;BMP280;15569;42.652;23.040;2023-07-09T03:33:26;93508.56;;;20.38
28305;BMP280;15569;42.652;23.040;2023-07-09T03:35:52;93505.16;;;20.39
28305;BMP280;15569;42.652;23.040;2023-07-09T03:38:18;93512.03;;;20.38
28305;BMP280;15569;42.652;23.040;2023-07-09T03:40:44;93508.72;;;20.46
28305;BMP280;15569;42.652;23.040;2023-07-09T03:43:10;93515.78;;;20.53
28305;BMP280;15569;42.652;23.040;2023-07-09T03:45:37;93513.69;;;20.54
28305;BMP280;15569;42.652;23.040;2023-07-09T03:48:04;93513.00;;;20.53
28305;BMP280;15569;42.652;23.040;2023-07-09T03:50:29;93515.19;;;20.59
28305;BMP280;15569;42.652;23.040;2023-07-09T03:52:55;93508.25;;;20.58
28305;BMP280;15569;42.652;23.040;2023-07-09T03:55:20;93500.00;;;20.60
28305;BMP280;15569;42.652;23.040;2023-07-09T03:57:46;93516.09;;;20.71
28305;BMP280;15569;42.652;23.040;2023-07-09T04:00:12;93506.41;;;20.70
28305;BMP280;15569;42.652;23.040;2023-07-09T04:02:40;93522.44;;;20.78
28305;BMP280;15569;42.652;23.040;2023-07-09T04:05:09;93522.53;;;20.84
28305;BMP280;15569;42.652;23.040;2023-07-09T04:07:35;93519.81;;;20.86
28305;BMP280;15569;42.652;23.040;2023-07-09T04:10:01;93526.13;;;20.90
28305;BMP280;15569;42.652;23.040;2023-07-09T04:12:26;93521.34;;;20.95
28305;BMP280;15569;42.652;23.040;2023-07-09T04:14:52;93513.75;;;20.95
28305;BMP280;15569;42.652;23.040;2023-07-09T04:17:17;93513.25;;;21.05
28305;BMP280;15569;42.652;23.040;2023-07-09T04:19:43;93520.94;;;21.10
28305;BMP280;15569;42.652;23.040;2023-07-09T04:22:11;93516.84;;;21.15
28305;BMP280;15569;42.652;23.040;2023-07-09T04:24:36;93519.75;;;21.21
28305;BMP280;15569;42.652;23.040;2023-07-09T04:27:02;93518.47;;;21.26
28305;BMP280;15569;42.652;23.040;2023-07-09T04:29:32;93522.66;;;21.29
28305;BMP280;15569;42.652;23.040;2023-07-09T04:32:02;93517.84;;;21.32
28305;BMP280;15569;42.652;23.040;2023-07-09T04:34:27;93524.19;;;21.42
28305;BMP280;15569;42.652;23.040;2023-07-09T04:36:53;93522.19;;;21.45
28305;BMP280;15569;42.652;23.040;2023-07-09T04:39:18;93533.38;;;21.53
28305;BMP280;15569;42.652;23.040;2023-07-09T04:41:44;93522.34;;;21.55
28305;BMP280;15569;42.652;23.040;2023-07-09T04:44:09;93519.59;;;21.57
28305;BMP280;15569;42.652;23.040;2023-07-09T04:46:34;93520.44;;;21.66
28305;BMP280;15569;42.652;23.040;2023-07-09T04:49:00;93525.28;;;21.67
28305;BMP280;15569;42.652;23.040;2023-07-09T04:51:26;93528.75;;;21.68
28305;BMP280;15569;42.652;23.040;2023-07-09T04:53:52;93517.72;;;21.70
28305;BMP280;15569;42.652;23.040;2023-07-09T04:56:18;93519.31;;;21.39
28305;BMP280;15569;42.652;23.040;2023-07-09T04:58:43;93532.47;;;21.38
28305;BMP280;15569;42.652;23.040;2023-07-09T05:01:09;93539.19;;;21.27
28305;BMP280;15569;42.652;23.040;2023-07-09T05:03:35;93540.00;;;21.34
28305;BMP280;15569;42.652;23.040;2023-07-09T05:06:00;93536.00;;;21.03
28305;BMP280;15569;42.652;23.040;2023-07-09T05:08:26;93541.78;;;20.78
28305;BMP280;15569;42.652;23.040;2023-07-09T05:10:52;93536.19;;;21.13
28305;BMP280;15569;42.652;23.040;2023-07-09T05:13:18;93541.25;;;20.87
28305;BMP280;15569;42.652;23.040;2023-07-09T05:15:46;93536.56;;;20.94
28305;BMP280;15569;42.652;23.040;2023-07-09T05:18:13;93541.81;;;21.17
28305;BMP280;15569;42.652;23.040;2023-07-09T05:20:39;93541.81;;;21.17
28305;BMP280;15569;42.652;23.040;2023-07-09T05:23:05;93542.09;;;21.35
28305;BMP280;15569;42.652;23.040;2023-07-09T05:25:31;93547.00;;;20.99
28305;BMP280;15569;42.652;23.040;2023-07-09T05:27:56;93543.44;;;21.32
28305;BMP280;15569;42.652;23.040;2023-07-09T05:30:22;93536.31;;;21.21
28305;BMP280;15569;42.652;23.040;2023-07-09T05:32:47;93548.56;;;21.08
28305;BMP280;15569;42.652;23.040;2023-07-09T05:35:13;93547.19;;;21.09
28305;BMP280;15569;42.652;23.040;2023-07-09T05:37:39;93544.91;;;21.39
28305;BMP280;15569;42.652;23.040;2023-07-09T05:40:06;93546.91;;;20.93
28305;BMP280;15569;42.652;23.040;2023-07-09T05:42:32;93546.72;;;21.21
28305;BMP280;15569;42.652;23.040;2023-07-09T05:44:57;93537.91;;;21.32
28305;BMP280;15569;42.652;23.040;2023-07-09T05:47:24;93543.81;;;21.56
28305;BMP280;15569;42.652;23.040;2023-07-09T05:49:49;93548.94;;;21.78
28305;BMP280;15569;42.652;23.040;2023-07-09T05:52:19;93545.44;;;21.72
28305;BMP280;15569;42.652;23.040;2023-07-09T05:54:45;93543.66;;;21.92
28305;BMP280;15569;42.652;23.040;2023-07-09T05:57:11;93538.97;;;22.05
28305;BMP280;15569;42.652;23.040;2023-07-09T05:59:36;93541.94;;;22.21
28305;BMP280;15569;42.652;23.040;2023-07-09T06:02:03;93536.00;;;21.89
28305;BMP280;15569;42.652;23.040;2023-07-09T06:04:29;93547.34;;;22.09
28305;BMP280;15569;42.652;23.040;2023-07-09T06:06:56;93544.53;;;22.07
28305;BMP280;15569;42.652;23.040;2023-07-09T06:09:22;93543.44;;;22.28
28305;BMP280;15569;42.652;23.040;2023-07-09T06:46:07;93524.88;;;23.08
28305;BMP280;15569;42.652;23.040;2023-07-09T06:48:34;93529.53;;;22.89
28305;BMP280;15569;42.652;23.040;2023-07-09T06:51:00;93531.31;;;22.61
28305;BMP280;15569;42.652;23.040;2023-07-09T06:53:26;93532.78;;;22.70
28305;BMP280;15569;42.652;23.040;2023-07-09T06:55:52;93522.75;;;23.07
28305;BMP280;15569;42.652;23.040;2023-07-09T06:58:21;93530.59;;;23.28
28305;BMP280;15569;42.652;23.040;2023-07-09T07:00:48;93530.53;;;23.26
28305;BMP280;15569;42.652;23.040;2023-07-09T07:03:14;93530.69;;;23.44
28305;BMP280;15569;42.652;23.040;2023-07-09T07:05:48;93520.63;;;23.01
28305;BMP280;15569;42.652;23.040;2023-07-09T07:08:16;93529.56;;;22.93
28305;BMP280;15569;42.652;23.040;2023-07-09T07:10:42;93521.44;;;23.14
28305;BMP280;15569;42.652;23.040;2023-07-09T07:13:08;93520.97;;;23.43
28305;BMP280;15569;42.652;23.040;2023-07-09T07:15:34;93513.28;;;23.32
28305;BMP280;15569;42.652;23.040;2023-07-09T07:17:59;93517.88;;;23.01
28305;BMP280;15569;42.652;23.040;2023-07-09T07:20:24;93519.56;;;23.40
28305;BMP280;15569;42.652;23.040;2023-07-09T07:22:50;93516.94;;;23.62
28305;BMP280;15569;42.652;23.040;2023-07-09T07:25:15;93515.00;;;23.89
28305;BMP280;15569;42.652;23.040;2023-07-09T07:27:41;93526.53;;;23.45
28305;BMP280;15569;42.652;23.040;2023-07-09T07:30:07;93520.69;;;23.07
28305;BMP280;15569;42.652;23.040;2023-07-09T07:32:44;93526.66;;;22.77
28305;BMP280;15569;42.652;23.040;2023-07-09T07:35:10;93519.69;;;22.72
28305;BMP280;15569;42.652;23.040;2023-07-09T07:37:35;93506.78;;;23.01
28305;BMP280;15569;42.652;23.040;2023-07-09T07:40:01;93507.31;;;22.83
28305;BMP280;15569;42.652;23.040;2023-07-09T07:42:27;93497.03;;;23.00
28305;BMP280;15569;42.652;23.040;2023-07-09T07:44:52;93505.81;;;22.74
28305;BMP280;15569;42.652;23.040;2023-07-09T07:47:19;93504.94;;;22.54
28305;BMP280;15569;42.652;23.040;2023-07-09T07:49:44;93510.78;;;22.86
28305;BMP280;15569;42.652;23.040;2023-07-09T07:52:09;93503.94;;;22.97
28305;BMP280;15569;42.652;23.040;2023-07-09T07:54:35;93501.22;;;23.03
28305;BMP280;15569;42.652;23.040;2023-07-09T07:57:01;93505.63;;;23.30
28305;BMP280;15569;42.652;23.040;2023-07-09T08:01:52;93511.25;;;23.44
28305;BMP280;15569;42.652;23.040;2023-07-09T08:04:17;93507.19;;;23.59
28305;BMP280;15569;42.652;23.040;2023-07-09T08:06:42;93503.84;;;23.79
28305;BMP280;15569;42.652;23.040;2023-07-09T08:09:08;93497.63;;;23.82
28305;BMP280;15569;42.652;23.040;2023-07-09T08:11:34;93494.16;;;23.82
28305;BMP280;15569;42.652;23.040;2023-07-09T08:13:59;93494.28;;;24.06
28305;BMP280;15569;42.652;23.040;2023-07-09T08:16:26;93496.88;;;23.76
28305;BMP280;15569;42.652;23.040;2023-07-09T08:18:51;93492.78;;;23.85
28305;BMP280;15569;42.652;23.040;2023-07-09T08:21:19;93494.19;;;23.92
28305;BMP280;15569;42.652;23.040;2023-07-09T08:23:45;93485.91;;;24.04
28305;BMP280;15569;42.652;23.040;2023-07-09T08:26:11;93492.28;;;24.41
28305;BMP280;15569;42.652;23.040;2023-07-09T08:28:37;93487.94;;;23.93
28305;BMP280;15569;42.652;23.040;2023-07-09T08:31:02;93481.06;;;24.08
28305;BMP280;15569;42.652;23.040;2023-07-09T08:33:28;93476.28;;;24.31
28305;BMP280;15569;42.652;23.040;2023-07-09T08:35:54;93490.94;;;24.52
28305;BMP280;15569;42.652;23.040;2023-07-09T08:38:21;93495.06;;;24.35
28305;BMP280;15569;42.652;23.040;2023-07-09T08:41:02;93495.81;;;24.53
28305;BMP280;15569;42.652;23.040;2023-07-09T08:43:44;93482.59;;;24.64
28305;BMP280;15569;42.652;23.040;2023-07-09T08:46:24;93489.59;;;24.83
28305;BMP280;15569;42.652;23.040;2023-07-09T08:48:54;93489.59;;;24.91
28305;BMP280;15569;42.652;23.040;2023-07-09T08:51:32;93480.56;;;25.00
28305;BMP280;15569;42.652;23.040;2023-07-09T08:54:00;93491.66;;;24.78
28305;BMP280;15569;42.652;23.040;2023-07-09T08:56:27;93495.84;;;24.79
28305;BMP280;15569;42.652;23.040;2023-07-09T08:58:55;93486.13;;;24.86
28305;BMP280;15569;42.652;23.040;2023-07-09T09:01:24;93487.50;;;24.91
28305;BMP280;15569;42.652;23.040;2023-07-09T09:03:53;93482.63;;;25.04
28305;BMP280;15569;42.652;23.040;2023-07-09T09:06:27;93486.81;;;25.19
28305;BMP280;15569;42.652;23.040;2023-07-09T09:12:25;93484.69;;;25.51
28305;BMP280;15569;42.652;23.040;2023-07-09T09:15:02;93482.56;;;25.70
28305;BMP280;15569;42.652;23.040;2023-07-09T09:17:33;93485.31;;;25.80
28305;BMP280;15569;42.652;23.040;2023-07-09T09:20:02;93490.94;;;25.60
28305;BMP280;15569;42.652;23.040;2023-07-09T09:25:55;93485.38;;;25.60
28305;BMP280;15569;42.652;23.040;2023-07-09T09:28:21;93489.47;;;25.83
28305;BMP280;15569;42.652;23.040;2023-07-09T09:30:49;93488.00;;;26.00
28305;BMP280;15569;42.652;23.040;2023-07-09T09:33:16;93489.34;;;26.19
28305;BMP280;15569;42.652;23.040;2023-07-09T09:35:44;93484.59;;;25.81
28305;BMP280;15569;42.652;23.040;2023-07-09T09:38:12;93488.88;;;25.50
28305;BMP280;15569;42.652;23.040;2023-07-09T09:40:38;93497.88;;;25.55
28305;BMP280;15569;42.652;23.040;2023-07-09T09:43:11;93486.69;;;25.81
28305;BMP280;15569;42.652;23.040;2023-07-09T09:45:40;93491.66;;;25.34
28305;BMP280;15569;42.652;23.040;2023-07-09T09:48:15;93483.97;;;25.59
28305;BMP280;15569;42.652;23.040;2023-07-09T09:50:41;93478.41;;;25.59
28305;BMP280;15569;42.652;23.040;2023-07-09T09:53:07;93474.97;;;25.28
28305;BMP280;15569;42.652;23.040;2023-07-09T09:55:33;93476.38;;;25.33
28305;BMP280;15569;42.652;23.040;2023-07-09T09:58:00;93478.44;;;25.43
28305;BMP280;15569;42.652;23.040;2023-07-09T10:00:29;93472.19;;;25.08
28305;BMP280;15569;42.652;23.040;2023-07-09T10:03:03;93475.00;;;24.74
28305;BMP280;15569;42.652;23.040;2023-07-09T10:05:38;93478.47;;;24.79
28305;BMP280;15569;42.652;23.040;2023-07-09T10:08:12;93481.28;;;25.13
28305;BMP280;15569;42.652;23.040;2023-07-09T10:10:42;93478.47;;;25.05
28305;BMP280;15569;42.652;23.040;2023-07-09T10:13:18;93469.38;;;25.52
28305;BMP280;15569;42.652;23.040;2023-07-09T10:16:13;93463.69;;;25.84
28305;BMP280;15569;42.652;23.040;2023-07-09T10:18:57;93464.31;;;26.05
28305;BMP280;15569;42.652;23.040;2023-07-09T10:24:22;93465.16;;;25.65
28305;BMP280;15569;42.652;23.040;2023-07-09T10:26:52;93456.72;;;25.96
28305;BMP280;15569;42.652;23.040;2023-07-09T10:34:57;93459.63;;;25.57
28305;BMP280;15569;42.652;23.040;2023-07-09T10:37:53;93453.88;;;26.00
28305;BMP280;15569;42.652;23.040;2023-07-09T10:40:31;93448.25;;;26.16
28305;BMP280;15569;42.652;23.040;2023-07-09T10:42:59;93446.13;;;26.16
28305;BMP280;15569;42.652;23.040;2023-07-09T10:48:08;93459.16;;;26.54
28305;BMP280;15569;42.652;23.040;2023-07-09T10:50:50;93454.09;;;26.82
28305;BMP280;15569;42.652;23.040;2023-07-09T10:53:45;93464.75;;;26.54
28305;BMP280;15569;42.652;23.040;2023-07-09T10:56:16;93454.13;;;26.74
28305;BMP280;15569;42.652;23.040;2023-07-09T11:01:32;93444.06;;;26.19
28305;BMP280;15569;42.652;23.040;2023-07-09T11:04:08;93454.38;;;26.38
28305;BMP280;15569;42.652;23.040;2023-07-09T11:09:09;93457.03;;;26.56
28305;BMP280;15569;42.652;23.040;2023-07-09T11:11:48;93445.22;;;26.52
28305;BMP280;15569;42.652;23.040;2023-07-09T11:14:45;93457.09;;;26.52
28305;BMP280;15569;42.652;23.040;2023-07-09T11:17:17;93460.63;;;26.39
28305;BMP280;15569;42.652;23.040;2023-07-09T11:19:46;93458.50;;;26.47
28305;BMP280;15569;42.652;23.040;2023-07-09T11:22:20;93456.81;;;26.88
28305;BMP280;15569;42.652;23.040;2023-07-09T11:27:29;93444.81;;;27.04
28305;BMP280;15569;42.652;23.040;2023-07-09T11:30:03;93456.50;;;27.22
28305;BMP280;15569;42.652;23.040;2023-07-09T11:32:30;93451.88;;;27.63
28305;BMP280;15569;42.652;23.040;2023-07-09T11:35:06;93450.84;;;27.93
28305;BMP280;15569;42.652;23.040;2023-07-09T11:37:32;93447.81;;;28.11
28305;BMP280;15569;42.652;23.040;2023-07-09T11:40:12;93448.06;;;28.40
28305;BMP280;15569;42.652;23.040;2023-07-09T11:45:15;93442.22;;;28.60
28305;BMP280;15569;42.652;23.040;2023-07-09T11:52:56;93440.38;;;28.40
28305;BMP280;15569;42.652;23.040;2023-07-09T11:58:02;93436.38;;;28.74
28305;BMP280;15569;42.652;23.040;2023-07-09T12:00:37;93438.84;;;28.49
28305;BMP280;15569;42.652;23.040;2023-07-09T12:03:04;93446.84;;;28.31
28305;BMP280;15569;42.652;23.040;2023-07-09T12:05:29;93433.28;;;28.92
28305;BMP280;15569;42.652;23.040;2023-07-09T12:07:56;93437.25;;;29.05
28305;BMP280;15569;42.652;23.040;2023-07-09T12:10:25;93439.78;;;29.21
28305;BMP280;15569;42.652;23.040;2023-07-09T12:12:58;93445.22;;;29.29
28305;BMP280;15569;42.652;23.040;2023-07-09T12:15:27;93430.19;;;29.08
28305;BMP280;15569;42.652;23.040;2023-07-09T12:18:03;93439.00;;;28.86
28305;BMP280;15569;42.652;23.040;2023-07-09T12:20:35;93423.91;;;29.07
28305;BMP280;15569;42.652;23.040;2023-07-09T12:23:27;93424.47;;;29.14
28305;BMP280;15569;42.652;23.040;2023-07-09T12:25:53;93430.03;;;29.18
28305;BMP280;15569;42.652;23.040;2023-07-09T12:28:20;93425.19;;;29.51
28305;BMP280;15569;42.652;23.040;2023-07-09T12:30:51;93422.38;;;29.14
28305;BMP280;15569;42.652;23.040;2023-07-09T12:33:22;93426.03;;;29.07
28305;BMP280;15569;42.652;23.040;2023-07-09T12:35:54;93419.03;;;29.44
28305;BMP280;15569;42.652;23.040;2023-07-09T12:38:23;93428.97;;;29.72
28305;BMP280;15569;42.652;23.040;2023-07-09T12:40:50;93429.28;;;29.91
28305;BMP280;15569;42.652;23.040;2023-07-09T12:43:27;93421.13;;;30.11
28305;BMP280;15569;42.652;23.040;2023-07-09T12:45:54;93417.88;;;29.31
28305;BMP280;15569;42.652;23.040;2023-07-09T12:48:25;93408.88;;;29.94
28305;BMP280;15569;42.652;23.040;2023-07-09T12:50:55;93415.59;;;30.07
28305;BMP280;15569;42.652;23.040;2023-07-09T12:53:23;93420.94;;;30.19
28305;BMP280;15569;42.652;23.040;2023-07-09T12:55:51;93418.72;;;30.24
28305;BMP280;15569;42.652;23.040;2023-07-09T12:58:22;93418.63;;;29.97
28305;BMP280;15569;42.652;23.040;2023-07-09T13:00:50;93425.88;;;29.86
28305;BMP280;15569;42.652;23.040;2023-07-09T13:03:24;93407.34;;;30.01
28305;BMP280;15569;42.652;23.040;2023-07-09T13:05:57;93421.16;;;30.09
28305;BMP280;15569;42.652;23.040;2023-07-09T13:08:25;93405.72;;;29.77
28305;BMP280;15569;42.652;23.040;2023-07-09T13:10:51;93415.13;;;30.29
28305;BMP280;15569;42.652;23.040;2023-07-09T13:13:19;93414.19;;;30.67
28305;BMP280;15569;42.652;23.040;2023-07-09T13:15:49;93409.38;;;30.90
28305;BMP280;15569;42.652;23.040;2023-07-09T13:18:15;93423.75;;;30.78
28305;BMP280;15569;42.652;23.040;2023-07-09T13:20:45;93417.44;;;30.78
28305;BMP280;15569;42.652;23.040;2023-07-09T13:23:24;93416.19;;;30.99
28305;BMP280;15569;42.652;23.040;2023-07-09T13:25:51;93417.13;;;31.16
28305;BMP280;15569;42.652;23.040;2023-07-09T13:28:23;93421.00;;;31.29
28305;BMP280;15569;42.652;23.040;2023-07-09T13:30:56;93422.06;;;30.89
28305;BMP280;15569;42.652;23.040;2023-07-09T13:33:23;93416.28;;;31.22
28305;BMP280;15569;42.652;23.040;2023-07-09T13:35:49;93427.88;;;31.34
28305;BMP280;15569;42.652;23.040;2023-07-09T13:38:19;93416.81;;;31.02
28305;BMP280;15569;42.652;23.040;2023-07-09T13:40:47;93416.13;;;31.28
28305;BMP280;15569;42.652;23.040;2023-07-09T13:43:34;93419.16;;;31.44
28305;BMP280;15569;42.652;23.040;2023-07-09T13:46:03;93424.63;;;31.50
28305;BMP280;15569;42.652;23.040;2023-07-09T13:48:31;93424.13;;;31.68
28305;BMP280;15569;42.652;23.040;2023-07-09T13:50:57;93418.06;;;31.58
28305;BMP280;15569;42.652;23.040;2023-07-09T13:53:26;93429.22;;;31.86
28305;BMP280;15569;42.652;23.040;2023-07-09T13:55:53;93422.66;;;31.94
28305;BMP280;15569;42.652;23.040;2023-07-09T13:58:20;93421.34;;;31.66
28305;BMP280;15569;42.652;23.040;2023-07-09T14:00:47;93436.78;;;31.67
28305;BMP280;15569;42.652;23.040;2023-07-09T14:03:18;93426.25;;;31.68
28305;BMP280;15569;42.652;23.040;2023-07-09T14:05:44;93431.00;;;31.73
28305;BMP280;15569;42.652;23.040;2023-07-09T14:08:11;93430.97;;;31.98
28305;BMP280;15569;42.652;23.040;2023-07-09T14:10:36;93423.38;;;31.70
28305;BMP280;15569;42.652;23.040;2023-07-09T14:13:02;93424.72;;;31.95
28305;BMP280;15569;42.652;23.040;2023-07-09T14:15:30;93425.22;;;32.24
28305;BMP280;15569;42.652;23.040;2023-07-09T14:17:55;93432.47;;;32.17
28305;BMP280;15569;42.652;23.040;2023-07-09T14:20:22;93433.72;;;32.00
28305;BMP280;15569;42.652;23.040;2023-07-09T14:22:49;93427.22;;;31.83
28305;BMP280;15569;42.652;23.040;2023-07-09T14:25:18;93431.25;;;31.63
28305;BMP280;15569;42.652;23.040;2023-07-09T14:27:44;93423.00;;;31.82
28305;BMP280;15569;42.652;23.040;2023-07-09T14:30:14;93430.38;;;32.18
28305;BMP280;15569;42.652;23.040;2023-07-09T14:32:40;93426.34;;;31.88
28305;BMP280;15569;42.652;23.040;2023-07-09T14:35:21;93429.41;;;31.80
28305;BMP280;15569;42.652;23.040;2023-07-09T14:37:48;93432.78;;;32.07
28305;BMP280;15569;42.652;23.040;2023-07-09T14:40:16;93430.56;;;31.87
28305;BMP280;15569;42.652;23.040;2023-07-09T14:42:42;93434.16;;;31.86
28305;BMP280;15569;42.652;23.040;2023-07-09T14:45:23;93439.50;;;32.18
28305;BMP280;15569;42.652;23.040;2023-07-09T14:47:50;93430.34;;;31.95
28305;BMP280;15569;42.652;23.040;2023-07-09T14:50:16;93432.66;;;31.89
28305;BMP280;15569;42.652;23.040;2023-07-09T14:52:43;93426.63;;;32.03
28305;BMP280;15569;42.652;23.040;2023-07-09T14:55:17;93425.81;;;31.82
28305;BMP280;15569;42.652;23.040;2023-07-09T14:57:44;93424.31;;;32.09
28305;BMP280;15569;42.652;23.040;2023-07-09T15:00:18;93428.84;;;31.98
28305;BMP280;15569;42.652;23.040;2023-07-09T15:02:45;93425.28;;;32.00
28305;BMP280;15569;42.652;23.040;2023-07-09T15:05:22;93435.13;;;31.76
28305;BMP280;15569;42.652;23.040;2023-07-09T15:07:48;93429.22;;;32.09
28305;BMP280;15569;42.652;23.040;2023-07-09T15:10:16;93432.34;;;32.21
28305;BMP280;15569;42.652;23.040;2023-07-09T15:12:43;93436.66;;;31.96
28305;BMP280;15569;42.652;23.040;2023-07-09T15:15:17;93429.28;;;31.84
28305;BMP280;15569;42.652;23.040;2023-07-09T15:17:43;93431.88;;;31.68
28305;BMP280;15569;42.652;23.040;2023-07-09T15:20:14;93439.44;;;31.73
28305;BMP280;15569;42.652;23.040;2023-07-09T15:22:40;93432.41;;;31.72
28305;BMP280;15569;42.652;23.040;2023-07-09T15:25:28;93449.69;;;31.58
28305;BMP280;15569;42.652;23.040;2023-07-09T15:27:54;93449.81;;;31.79
28305;BMP280;15569;42.652;23.040;2023-07-09T15:30:25;93447.09;;;31.50